createdAt,value
2018-04-25T00:00:55.770Z,7.75
2018-04-25T00:03:23.341Z,7.50
2018-04-25T00:05:50.897Z,7.47
2018-04-25T00:08:18.432Z,7.35
2018-04-25T00:10:46.730Z,7.25
2018-04-25T00:13:14.285Z,7.45
2018-04-25T00:15:41.835Z,6.57
2018-04-25T00:18:10.174Z,7.43
2018-04-25T00:20:37.718Z,6.60
2018-04-25T00:23:05.265Z,7.10
2018-04-25T00:25:32.791Z,6.72
2018-04-25T00:28:01.123Z,6.87
2018-04-25T00:30:28.684Z,6.78
2018-04-25T00:32:56.248Z,7.40
2018-04-25T00:35:23.799Z,7.50
2018-04-25T00:37:51.339Z,7.00
2018-04-25T00:40:18.900Z,6.28
2018-04-25T00:42:46.427Z,5.80
2018-04-25T00:45:13.987Z,6.37
2018-04-25T00:47:41.529Z,5.35
2018-04-25T00:50:09.090Z,5.22
2018-04-25T00:52:36.674Z,5.25
2018-04-25T00:55:04.230Z,5.22
2018-04-25T00:57:32.552Z,4.30
2018-04-25T01:00:00.116Z,4.35
2018-04-25T01:02:27.658Z,4.97
2018-04-25T01:04:55.220Z,4.82
2018-04-25T01:07:22.781Z,4.43
2018-04-25T01:09:50.355Z,5.00
2018-04-25T01:12:17.927Z,4.18
2018-04-25T01:14:45.475Z,4.93
2018-04-25T01:17:13.039Z,4.32
2018-04-25T01:19:40.599Z,4.03
2018-04-25T01:22:08.152Z,4.25
2018-04-25T01:24:35.712Z,4.47
2018-04-25T01:27:06.982Z,4.68
2018-04-25T01:29:34.529Z,4.45
2018-04-25T01:32:03.853Z,4.32
2018-04-25T01:35:00.298Z,4.03
2018-04-25T01:37:43.587Z,4.50
2018-04-25T01:40:11.116Z,4.78
2018-04-25T01:42:40.962Z,4.35
2018-04-25T01:45:24.086Z,4.30
2018-04-25T01:47:55.404Z,4.32
2018-04-25T01:50:38.588Z,5.40
2018-04-25T01:53:17.947Z,4.82
2018-04-25T01:55:57.383Z,4.47
2018-04-25T01:58:36.850Z,5.60
2018-04-25T02:01:16.182Z,5.80
2018-04-25T02:04:00.230Z,5.75
2018-04-25T02:06:28.550Z,5.82
2018-04-25T02:08:56.124Z,5.45
2018-04-25T02:11:23.690Z,5.50
2018-04-25T02:13:51.235Z,5.40
2018-04-25T02:16:18.818Z,5.97
2018-04-25T02:18:46.371Z,5.18
2018-04-25T02:21:13.924Z,5.45
2018-04-25T02:23:41.455Z,6.10
2018-04-25T02:26:09.012Z,5.20
2018-04-25T02:28:36.575Z,4.90
2018-04-25T02:31:04.143Z,4.93
2018-04-25T02:33:31.684Z,5.35
2018-04-25T02:35:59.242Z,4.68
2018-04-25T02:38:26.790Z,5.32
2018-04-25T02:40:55.120Z,4.55
2018-04-25T02:43:22.671Z,5.30
2018-04-25T02:45:50.206Z,4.85
2018-04-25T02:48:17.768Z,5.22
2018-04-25T02:50:45.327Z,4.82
2018-04-25T02:53:12.880Z,4.75
2018-04-25T02:55:40.442Z,6.00
2018-04-25T02:58:08.011Z,5.95
2018-04-25T03:00:35.556Z,5.30
2018-04-25T03:03:03.860Z,5.45
2018-04-25T03:05:31.413Z,6.35
2018-04-25T03:07:58.946Z,5.90
2018-04-25T03:10:27.271Z,5.32
2018-04-25T03:12:54.803Z,6.07
2018-04-25T03:15:22.372Z,5.85
2018-04-25T03:17:49.919Z,5.22
2018-04-25T03:20:17.488Z,6.37
2018-04-25T03:22:45.040Z,5.47
2018-04-25T03:25:12.612Z,5.55
2018-04-25T03:27:40.160Z,5.20
2018-04-25T03:30:07.707Z,5.40
2018-04-25T03:32:35.271Z,5.45
2018-04-25T03:35:02.817Z,4.78
2018-04-25T03:37:30.379Z,5.53
2018-04-25T03:39:57.942Z,6.00
2018-04-25T03:42:25.474Z,5.80
2018-04-25T03:44:53.012Z,5.45
2018-04-25T03:47:21.333Z,5.20
2018-04-25T03:49:48.873Z,5.50
2018-04-25T03:52:16.436Z,5.53
2018-04-25T03:54:43.971Z,6.60
2018-04-25T03:57:12.301Z,6.15
2018-04-25T03:59:39.856Z,5.72
2018-04-25T04:02:07.411Z,5.47
2018-04-25T04:04:34.963Z,5.10
2018-04-25T04:07:02.531Z,5.55
2018-04-25T04:09:30.120Z,5.78
2018-04-25T04:11:57.663Z,6.12
2018-04-25T04:14:25.227Z,6.57
2018-04-25T04:16:52.802Z,6.78
2018-04-25T04:19:20.359Z,6.55
2018-04-25T04:21:47.899Z,6.12
2018-04-25T04:24:15.432Z,6.03
2018-04-25T04:26:42.990Z,5.22
2018-04-25T04:29:10.524Z,4.95
2018-04-25T04:31:38.858Z,5.62
2018-04-25T04:34:06.408Z,6.03
2018-04-25T04:36:33.967Z,5.18
2018-04-25T04:39:01.508Z,7.05
2018-04-25T04:41:29.083Z,5.50
2018-04-25T04:43:56.636Z,5.43
2018-04-25T04:46:24.185Z,5.05
2018-04-25T04:48:51.718Z,4.95
2018-04-25T04:51:20.048Z,4.12
2018-04-25T04:53:47.612Z,5.18
2018-04-25T04:56:15.145Z,4.40
2018-04-25T04:58:42.708Z,6.20
2018-04-25T05:01:10.251Z,4.62
2018-04-25T05:03:37.796Z,4.78
2018-04-25T05:06:06.130Z,4.20
2018-04-25T05:08:33.740Z,5.57
2018-04-25T05:11:01.269Z,7.25
2018-04-25T05:13:28.831Z,4.18
2018-04-25T05:15:56.386Z,4.80
2018-04-25T05:18:24.692Z,5.03
2018-04-25T05:20:53.011Z,4.35
2018-04-25T05:23:20.561Z,6.12
2018-04-25T05:25:48.131Z,4.87
2018-04-25T05:28:15.688Z,4.43
2018-04-25T05:30:43.245Z,5.28
2018-04-25T05:33:10.798Z,5.50
2018-04-25T05:35:38.357Z,5.70
2018-04-25T05:38:05.930Z,4.70
2018-04-25T05:40:33.515Z,3.70
2018-04-25T05:43:01.070Z,5.12
2018-04-25T05:45:28.618Z,5.05
2018-04-25T05:47:56.188Z,4.80
2018-04-25T05:50:23.760Z,4.12
2018-04-25T05:52:51.295Z,4.77
2018-04-25T05:55:18.840Z,4.50
2018-04-25T05:57:49.299Z,5.37
2018-04-25T06:00:17.616Z,4.83
2018-04-25T06:02:45.148Z,4.70
2018-04-25T06:05:13.475Z,4.00
2018-04-25T06:07:41.004Z,4.57
2018-04-25T06:10:08.558Z,4.40
2018-04-25T06:12:36.127Z,4.30
2018-04-25T06:15:03.676Z,4.37
2018-04-25T06:17:31.232Z,4.10
2018-04-25T06:19:58.771Z,4.30
2018-04-25T06:22:27.096Z,3.40
2018-04-25T06:24:54.640Z,4.07
2018-04-25T06:27:22.184Z,4.30
2018-04-25T06:29:50.508Z,3.90
2018-04-25T06:32:18.057Z,3.87
2018-04-25T06:34:45.645Z,3.90
2018-04-25T06:37:13.189Z,3.47
2018-04-25T06:39:40.780Z,3.63
2018-04-25T06:42:09.809Z,3.07
2018-04-25T06:44:37.375Z,4.23
2018-04-25T06:47:04.920Z,3.47
2018-04-25T06:49:33.212Z,3.17
2018-04-25T06:52:00.746Z,3.80
2018-04-25T06:54:28.283Z,3.10
2018-04-25T06:56:56.612Z,3.43
2018-04-25T06:59:24.143Z,3.90
2018-04-25T07:01:51.703Z,3.13
2018-04-25T07:04:19.237Z,4.23
2018-04-25T07:06:46.770Z,4.30
2018-04-25T07:09:15.088Z,3.50
2018-04-25T07:11:42.624Z,4.20
2018-04-25T07:14:10.187Z,3.50
2018-04-25T07:16:37.734Z,3.43
2018-04-25T07:19:05.293Z,3.33
2018-04-25T07:21:32.827Z,4.90
2018-04-25T07:24:00.373Z,3.20
2018-04-25T07:26:28.667Z,3.43
2018-04-25T07:28:56.983Z,3.97
2018-04-25T07:31:24.511Z,3.33
2018-04-25T07:33:52.824Z,3.90
2018-04-25T07:36:20.395Z,4.17
2018-04-25T07:38:47.939Z,4.00
2018-04-25T07:41:15.502Z,4.07
2018-04-25T07:43:43.036Z,3.57
2018-04-25T07:46:10.594Z,3.80
2018-04-25T07:48:38.177Z,3.63
2018-04-25T07:51:05.708Z,4.10
2018-04-25T07:53:33.242Z,5.47
2018-04-25T07:56:01.553Z,4.67
2018-04-25T07:58:29.092Z,5.57
2018-04-25T08:00:56.648Z,4.23
2018-04-25T08:03:24.175Z,4.13
2018-04-25T08:05:52.482Z,3.87
2018-04-25T08:08:20.047Z,3.60
2018-04-25T08:10:47.583Z,3.60
2018-04-25T08:13:27.772Z,3.87
2018-04-25T08:16:07.129Z,4.60
2018-04-25T08:18:46.672Z,2.97
2018-04-25T08:21:26.057Z,4.43
2018-04-25T08:23:54.366Z,4.20
2018-04-25T08:26:21.908Z,4.33
2018-04-25T08:28:49.452Z,4.00
2018-04-25T08:31:17.762Z,4.97
2018-04-25T08:33:45.289Z,3.80
2018-04-25T08:36:13.619Z,3.87
2018-04-25T08:38:41.164Z,3.70
2018-04-25T08:41:08.724Z,4.20
2018-04-25T08:43:36.259Z,4.00
2018-04-25T08:46:04.558Z,3.30
2018-04-25T08:48:32.088Z,4.00
2018-04-25T08:51:00.400Z,3.70
2018-04-25T08:53:27.945Z,3.63
2018-04-25T08:55:55.484Z,3.93
2018-04-25T08:58:23.795Z,3.23
2018-04-25T09:00:51.343Z,3.20
2018-04-25T09:03:18.882Z,3.97
2018-04-25T09:05:47.216Z,3.70
2018-04-25T09:08:14.753Z,3.80
2018-04-25T09:10:42.299Z,3.80
2018-04-25T09:13:09.860Z,3.67
2018-04-25T09:15:37.437Z,3.53
2018-04-25T09:18:04.970Z,3.90
2018-04-25T09:20:33.282Z,3.60
2018-04-25T09:23:00.816Z,3.20
2018-04-25T09:25:28.365Z,3.67
2018-04-25T09:27:56.653Z,3.67
2018-04-25T09:30:24.187Z,3.30
2018-04-25T09:32:52.513Z,3.50
2018-04-25T09:35:20.091Z,3.13
2018-04-25T09:37:47.648Z,3.47
2018-04-25T09:40:15.201Z,3.77
2018-04-25T09:42:42.745Z,3.10
2018-04-25T09:45:10.295Z,3.13
2018-04-25T09:47:37.869Z,3.03
2018-04-25T09:50:05.429Z,3.83
2018-04-25T09:52:32.973Z,3.30
2018-04-25T09:55:00.527Z,2.50
2018-04-25T09:57:28.093Z,3.20
2018-04-25T09:59:56.394Z,2.63
2018-04-25T10:02:29.673Z,3.87
2018-04-25T10:04:57.221Z,2.70
2018-04-25T10:07:24.813Z,2.83
2018-04-25T10:09:52.313Z,3.57
2018-04-25T10:12:20.649Z,3.17
2018-04-25T10:14:48.182Z,2.70
2018-04-25T10:17:15.770Z,2.57
2018-04-25T10:19:43.292Z,3.03
2018-04-25T10:22:11.605Z,3.13
2018-04-25T10:24:39.132Z,3.07
2018-04-25T10:27:06.687Z,3.30
2018-04-25T10:29:34.260Z,3.40
2018-04-25T10:32:01.880Z,2.77
2018-04-25T10:34:29.373Z,3.20
2018-04-25T10:36:56.930Z,3.30
2018-04-25T10:39:24.493Z,2.73
2018-04-25T10:41:52.023Z,3.17
2018-04-25T10:44:19.602Z,3.53
2018-04-25T10:46:47.899Z,3.47
2018-04-25T10:49:15.430Z,2.57
2018-04-25T10:51:43.746Z,2.63
2018-04-25T10:54:11.276Z,3.20
2018-04-25T10:56:39.590Z,4.30
2018-04-25T10:59:07.143Z,3.93
2018-04-25T11:01:34.718Z,3.87
2018-04-25T11:04:02.242Z,3.50
2018-04-25T11:06:30.555Z,3.03
2018-04-25T11:08:58.080Z,3.27
2018-04-25T11:11:26.405Z,3.90
2018-04-25T11:13:53.926Z,3.83
2018-04-25T11:16:21.462Z,3.60
2018-04-25T11:18:49.023Z,3.90
2018-04-25T11:21:16.555Z,3.50
2018-04-25T11:23:44.118Z,3.37
2018-04-25T11:26:11.651Z,4.30
2018-04-25T11:28:39.990Z,3.30
2018-04-25T11:31:07.519Z,4.00
2018-04-25T11:33:35.124Z,4.77
2018-04-25T11:36:02.667Z,3.70
2018-04-25T11:38:30.201Z,5.00
2018-04-25T11:40:57.735Z,4.10
2018-04-25T11:43:26.042Z,4.60
2018-04-25T11:45:53.606Z,3.30
2018-04-25T11:48:21.151Z,4.00
2018-04-25T11:50:48.692Z,4.40
2018-04-25T11:53:17.039Z,3.57
2018-04-25T11:55:44.582Z,4.03
2018-04-25T11:58:12.140Z,4.03
2018-04-25T12:00:39.805Z,3.60
2018-04-25T12:03:07.355Z,3.00
2018-04-25T12:05:34.883Z,3.17
2018-04-25T12:08:03.208Z,3.23
2018-04-25T12:10:30.742Z,3.40
2018-04-25T12:12:58.299Z,3.40
2018-04-25T12:15:25.828Z,3.27
2018-04-25T12:17:54.135Z,3.67
2018-04-25T12:20:21.691Z,3.70
2018-04-25T12:22:49.361Z,3.00
2018-04-25T12:25:16.937Z,3.47
2018-04-25T12:27:44.467Z,2.93
2018-04-25T12:30:12.046Z,3.37
2018-04-25T12:32:39.617Z,2.40
2018-04-25T12:35:07.181Z,2.70
2018-04-25T12:37:34.715Z,2.33
2018-04-25T12:40:02.260Z,2.50
2018-04-25T12:42:29.818Z,2.97
2018-04-25T12:44:57.411Z,3.20
2018-04-25T12:47:24.931Z,3.07
2018-04-25T12:49:53.239Z,3.30
2018-04-25T12:52:20.771Z,2.70
2018-04-25T12:54:49.091Z,2.90
2018-04-25T12:57:16.618Z,3.43
2018-04-25T12:59:44.170Z,3.37
2018-04-25T13:02:12.458Z,2.27
2018-04-25T13:04:40.006Z,3.63
2018-04-25T13:07:08.295Z,3.60
2018-04-25T13:09:35.855Z,3.27
2018-04-25T13:12:03.382Z,3.10
2018-04-25T13:14:30.971Z,3.60
2018-04-25T13:16:58.500Z,2.80
2018-04-25T13:19:26.826Z,2.80
2018-04-25T13:21:54.362Z,3.47
2018-04-25T13:24:22.657Z,3.70
2018-04-25T13:26:50.207Z,3.63
2018-04-25T13:29:17.740Z,2.77
2018-04-25T13:31:46.078Z,2.97
2018-04-25T13:34:13.608Z,3.10
2018-04-25T13:36:41.293Z,3.33
2018-04-25T13:39:08.840Z,3.50
2018-04-25T13:41:36.387Z,2.67
2018-04-25T13:44:03.949Z,3.37
2018-04-25T13:46:31.495Z,3.33
2018-04-25T13:48:59.853Z,3.77
2018-04-25T13:51:27.354Z,4.07
2018-04-25T13:53:54.881Z,3.10
2018-04-25T13:56:23.271Z,3.70
2018-04-25T13:58:51.587Z,3.00
2018-04-25T14:01:19.126Z,2.80
2018-04-25T14:03:46.679Z,3.10
2018-04-25T14:06:14.292Z,3.03
2018-04-25T14:08:41.791Z,3.30
2018-04-25T14:11:10.211Z,3.50
2018-04-25T14:13:37.766Z,3.07
2018-04-25T14:16:05.295Z,3.77
2018-04-25T14:18:32.864Z,4.10
2018-04-25T14:21:01.194Z,3.40
2018-04-25T14:23:28.725Z,3.43
2018-04-25T14:25:56.268Z,4.13
2018-04-25T14:28:23.863Z,4.07
2018-04-25T14:30:51.426Z,3.63
2018-04-25T14:33:18.995Z,4.33
2018-04-25T14:35:46.540Z,2.87
2018-04-25T14:38:14.074Z,3.40
2018-04-25T14:40:41.625Z,2.67
2018-04-25T14:43:09.168Z,3.33
2018-04-25T14:45:37.487Z,3.13
2018-04-25T14:48:05.105Z,2.63
2018-04-25T14:50:33.424Z,2.70
2018-04-25T14:53:00.990Z,2.50
2018-04-25T14:55:28.522Z,1.97
2018-04-25T14:57:56.084Z,3.20
2018-04-25T15:00:23.646Z,2.50
2018-04-25T15:02:51.208Z,2.43
2018-04-25T15:05:18.756Z,2.17
2018-04-25T15:07:47.095Z,2.57
2018-04-25T15:10:14.642Z,2.10
2018-04-25T15:12:42.216Z,2.10
2018-04-25T15:15:10.554Z,2.33
2018-04-25T15:17:38.119Z,2.20
2018-04-25T15:20:05.740Z,2.20
2018-04-25T15:22:33.239Z,1.63
2018-04-25T15:25:00.807Z,2.10
2018-04-25T15:27:28.375Z,1.57
2018-04-25T15:29:56.665Z,1.87
2018-04-25T15:32:24.227Z,2.50
2018-04-25T15:34:52.589Z,1.93
2018-04-25T15:37:20.123Z,1.67
2018-04-25T15:39:47.683Z,1.83
2018-04-25T15:42:15.211Z,1.50
2018-04-25T15:44:43.530Z,2.20
2018-04-25T15:47:11.090Z,2.00
2018-04-25T15:49:38.631Z,2.20
2018-04-25T15:52:06.923Z,2.33
2018-04-25T15:54:34.600Z,2.20
2018-04-25T15:57:02.142Z,2.90
2018-04-25T15:59:29.706Z,3.13
2018-04-25T16:01:57.279Z,3.17
2018-04-25T16:04:24.818Z,2.60
2018-04-25T16:06:52.379Z,2.80
2018-04-25T16:09:19.936Z,2.40
2018-04-25T16:11:47.471Z,2.60
2018-04-25T16:14:15.806Z,3.20
2018-04-25T16:16:43.388Z,2.93
2018-04-25T16:19:10.955Z,3.67
2018-04-25T16:21:38.527Z,3.30
2018-04-25T16:24:06.059Z,3.30
2018-04-25T16:26:33.623Z,3.27
2018-04-25T16:29:01.175Z,3.27
2018-04-25T16:31:28.731Z,3.23
2018-04-25T16:33:56.287Z,3.17
2018-04-25T16:36:23.837Z,3.63
2018-04-25T16:38:51.396Z,3.80
2018-04-25T16:41:18.967Z,3.97
2018-04-25T16:43:46.539Z,2.97
2018-04-25T16:46:14.078Z,3.53
2018-04-25T16:48:41.667Z,3.03
2018-04-25T16:51:09.212Z,3.20
2018-04-25T16:53:37.619Z,2.93
2018-04-25T16:56:05.151Z,3.27
2018-04-25T16:58:32.728Z,3.63
2018-04-25T17:01:00.278Z,3.13
2018-04-25T17:03:27.857Z,3.50
2018-04-25T17:05:55.435Z,3.10
2018-04-25T17:08:23.752Z,3.40
2018-04-25T17:10:51.279Z,3.23
2018-04-25T17:13:19.600Z,3.10
2018-04-25T17:15:47.138Z,3.00
2018-04-25T17:18:14.702Z,3.17
2018-04-25T17:20:42.264Z,2.63
2018-04-25T17:23:09.832Z,2.60
2018-04-25T17:25:37.451Z,2.90
2018-04-25T17:28:04.992Z,2.93
2018-04-25T17:30:33.322Z,3.30
2018-04-25T17:33:00.855Z,2.87
2018-04-25T17:35:28.422Z,2.20
2018-04-25T17:37:55.963Z,2.87
2018-04-25T17:40:23.541Z,2.40
2018-04-25T17:42:51.158Z,2.73
2018-04-25T17:45:18.672Z,2.63
2018-04-25T17:47:46.243Z,3.27
2018-04-25T17:50:13.812Z,2.07
2018-04-25T17:52:41.366Z,2.57
2018-04-25T17:55:09.670Z,2.27
2018-04-25T17:57:37.325Z,2.37
2018-04-25T18:00:04.824Z,2.87
2018-04-25T18:02:32.387Z,2.77
2018-04-25T18:04:59.928Z,2.53
2018-04-25T18:07:27.488Z,2.60
2018-04-25T18:09:55.072Z,2.23
2018-04-25T18:12:22.600Z,2.50
2018-04-25T18:14:50.167Z,2.73
2018-04-25T18:17:17.703Z,2.37
2018-04-25T18:19:45.271Z,2.80
2018-04-25T18:22:12.851Z,2.10
2018-04-25T18:24:40.391Z,2.67
2018-04-25T18:27:07.985Z,2.77
2018-04-25T18:29:36.294Z,2.10
2018-04-25T18:32:03.845Z,2.57
2018-04-25T18:34:31.376Z,2.17
2018-04-25T18:36:59.698Z,2.30
2018-04-25T18:39:28.040Z,2.53
2018-04-25T18:41:55.664Z,2.30
2018-04-25T18:44:23.203Z,3.00
2018-04-25T18:46:50.766Z,2.37
2018-04-25T18:49:18.309Z,3.50
2018-04-25T18:51:46.661Z,3.03
2018-04-25T18:54:14.230Z,3.03
2018-04-25T18:56:41.776Z,3.03
2018-04-25T18:59:09.339Z,2.70
2018-04-25T19:01:36.909Z,2.23
2018-04-25T19:04:04.464Z,2.37
2018-04-25T19:06:32.003Z,3.17
2018-04-25T19:09:00.350Z,2.50
2018-04-25T19:11:27.924Z,2.40
2018-04-25T19:13:55.463Z,2.50
2018-04-25T19:16:23.024Z,2.57
2018-04-25T19:18:50.579Z,2.80
2018-04-25T19:21:18.160Z,2.60
2018-04-25T19:23:45.704Z,2.13
2018-04-25T19:26:13.264Z,2.00
2018-04-25T19:28:40.800Z,2.47
2018-04-25T19:31:08.334Z,2.73
2018-04-25T19:33:35.915Z,2.03
2018-04-25T19:36:03.499Z,2.93
2018-04-25T19:38:31.059Z,2.70
2018-04-25T19:40:58.612Z,2.20
2018-04-25T19:43:26.162Z,2.03
2018-04-25T19:45:54.490Z,2.00
2018-04-25T19:48:22.052Z,1.40
2018-04-25T19:50:49.607Z,1.57
2018-04-25T19:53:17.147Z,1.70
2018-04-25T19:55:44.695Z,1.57
2018-04-25T19:58:12.243Z,1.50
2018-04-25T20:00:40.591Z,1.62
2018-04-25T20:03:08.122Z,1.97
2018-04-25T20:05:35.792Z,1.30
2018-04-25T20:08:03.390Z,1.33
2018-04-25T20:10:30.946Z,1.27
2018-04-25T20:12:59.281Z,1.50
2018-04-25T20:15:26.811Z,1.57
2018-04-25T20:17:55.162Z,1.40
2018-04-25T20:20:23.477Z,1.33
2018-04-25T20:22:51.023Z,1.30
2018-04-25T20:25:19.352Z,1.20
2018-04-25T20:27:46.917Z,1.10
2018-04-25T20:30:14.446Z,1.10
2018-04-25T20:32:42.009Z,1.30
2018-04-25T20:35:09.569Z,1.30
2018-04-25T20:37:37.116Z,1.20
2018-04-25T20:40:04.699Z,1.00
2018-04-25T20:42:32.239Z,1.30
2018-04-25T20:44:59.826Z,1.17
2018-04-25T20:47:27.378Z,1.10
2018-04-25T20:49:55.214Z,1.10
2018-04-25T20:52:23.539Z,1.13
2018-04-25T20:54:51.087Z,1.10
2018-04-25T20:57:19.646Z,1.13
2018-04-25T20:59:48.062Z,1.00
2018-04-25T21:02:16.916Z,1.10
2018-04-25T21:04:44.507Z,0.80
2018-04-25T21:07:12.073Z,1.07
2018-04-25T21:09:39.659Z,1.10
2018-04-25T21:12:07.289Z,1.10
2018-04-25T21:14:34.835Z,0.87
2018-04-25T21:17:02.415Z,1.10
2018-04-25T21:19:29.981Z,1.00
2018-04-25T21:21:57.536Z,1.00
2018-04-25T21:24:25.927Z,1.37
2018-04-25T21:26:53.455Z,1.10
2018-04-25T21:29:21.035Z,1.03
2018-04-25T21:31:48.597Z,1.00
2018-04-25T21:34:16.165Z,0.80
2018-04-25T21:36:44.505Z,0.90
2018-04-25T21:39:12.071Z,1.10
2018-04-25T21:41:39.631Z,1.13
2018-04-25T21:44:07.203Z,1.00
2018-04-25T21:46:34.762Z,1.30
2018-04-25T21:49:02.319Z,1.80
2018-04-25T21:51:29.872Z,1.60
2018-04-25T21:53:57.450Z,1.85
2018-04-25T21:56:25.029Z,1.73
2018-04-25T21:58:52.653Z,1.85
2018-04-25T22:01:20.239Z,1.98
2018-04-25T22:03:47.795Z,2.10
2018-04-25T22:06:15.347Z,1.77
2018-04-25T22:08:42.903Z,2.17
2018-04-25T22:11:10.456Z,1.73
2018-04-25T22:13:37.991Z,1.60
2018-04-25T22:16:05.551Z,1.80
2018-04-25T22:18:33.096Z,1.60
2018-04-25T22:21:00.662Z,1.50
2018-04-25T22:23:28.195Z,2.17
2018-04-25T22:25:55.760Z,1.60
2018-04-25T22:28:24.112Z,1.75
2018-04-25T22:30:51.662Z,1.80
2018-04-25T22:33:19.204Z,2.58
2018-04-25T22:35:47.632Z,2.30
2018-04-25T22:38:15.946Z,2.08
2018-04-25T22:40:43.498Z,2.05
2018-04-25T22:43:11.027Z,2.22
2018-04-25T22:45:39.345Z,2.20
2018-04-25T22:48:06.887Z,2.87
2018-04-25T22:50:34.443Z,2.83
2018-04-25T22:53:02.771Z,2.62
2018-04-25T22:55:30.300Z,3.03
2018-04-25T22:57:57.865Z,3.10
2018-04-25T23:00:25.399Z,2.80
2018-04-25T23:02:52.948Z,3.53
2018-04-25T23:05:21.250Z,3.05
2018-04-25T23:07:48.806Z,3.33
2018-04-25T23:10:16.332Z,2.92
2018-04-25T23:12:43.881Z,2.85
2018-04-25T23:15:11.439Z,3.55
2018-04-25T23:17:38.992Z,3.30
2018-04-25T23:20:06.552Z,3.30
2018-04-25T23:22:34.096Z,3.67
2018-04-25T23:25:01.675Z,4.20
2018-04-25T23:27:29.211Z,3.90
2018-04-25T23:29:56.746Z,3.25
2018-04-25T23:32:24.303Z,3.40
2018-04-25T23:34:51.927Z,2.92
2018-04-25T23:37:19.423Z,3.40
2018-04-25T23:39:47.723Z,3.45
2018-04-25T23:42:15.496Z,3.58
2018-04-25T23:44:43.043Z,3.45
2018-04-25T23:47:10.568Z,3.58
2018-04-25T23:49:38.136Z,3.40
2018-04-25T23:52:05.679Z,2.60
2018-04-25T23:54:33.244Z,5.28
2018-04-25T23:57:00.783Z,3.60
2018-04-25T23:59:29.102Z,3.35
